Time;durP1;ratioP1;P1;durP2;ratioP2;P2;SDS_P1;SDS_P2;PMS_P1;PMS_P2;Temp;Humidity;BMP_temperature;BMP_pressure;BME280_temperature;BME280_humidity;BME280_pressure;Samples;Min_cycle;Max_cycle;Signal;HPM_P1;HPM_P2
2022/09/17 00:00:10;;;;;;;22.73;11.48;;;486.80;2380.80;;;;;;5033938;28;20099;-81
2022/09/17 00:02:37;;;;;;;18.15;11.45;;;486.70;2380.80;;;;;;5033816;28;20172;-82
2022/09/17 00:05:03;;;;;;;14.82;10.77;;;486.80;2380.80;;;;;;5033312;28;20183;-81
2022/09/17 00:07:29;;;;;;;16.55;11.63;;;486.80;2380.80;;;;;;5034929;28;20092;-81
2022/09/17 00:09:55;;;;;;;19.67;11.32;;;486.80;2380.80;;;;;;5033736;28;20112;-82
2022/09/17 00:12:20;;;;;;;20.67;12.45;;;486.80;2380.80;;;;;;5033071;28;20497;-81
2022/09/17 00:14:46;;;;;;;21.98;11.40;;;486.60;2380.80;;;;;;5033672;28;20059;-82
2022/09/17 00:17:12;;;;;;;17.08;10.82;;;486.50;2380.80;;;;;;5034681;28;20031;-82
2022/09/17 00:19:38;;;;;;;20.45;10.90;;;486.50;2380.80;;;;;;5032899;28;20053;-82
2022/09/17 00:22:04;;;;;;;15.23;10.68;;;486.60;2380.80;;;;;;5033896;28;20124;-82
2022/09/17 00:24:30;;;;;;;14.68;10.50;;;486.60;2380.80;;;;;;5033261;28;20112;-81
2022/09/17 00:26:56;;;;;;;14.15;9.02;;;486.60;2380.80;;;;;;5032715;28;20021;-81
2022/09/17 00:29:21;;;;;;;15.93;10.45;;;486.50;2380.80;;;;;;5066610;28;20025;-82
2022/09/17 00:31:47;;;;;;;16.55;9.25;;;486.60;2380.80;;;;;;5032990;28;20108;-80
2022/09/17 00:34:13;;;;;;;12.73;8.45;;;486.70;2380.80;;;;;;5030345;28;20045;-82
2022/09/17 00:36:39;;;;;;;19.30;8.63;;;486.70;2380.80;;;;;;5033139;28;20059;-81
2022/09/17 00:39:07;;;;;;;12.98;6.88;;;486.70;2380.80;;;;;;5032089;28;20033;-82
2022/09/17 00:41:35;;;;;;;13.55;7.05;;;486.70;2380.80;;;;;;5033525;28;20120;-81
2022/09/17 00:44:40;;;;;;;13.38;6.28;;;486.70;2380.80;;;;;;5033292;28;20053;-82
2022/09/17 00:47:28;;;;;;;12.88;6.97;;;486.80;2380.80;;;;;;5049607;28;20022;-82
2022/09/17 00:50:15;;;;;;;17.52;9.20;;;486.40;2380.80;;;;;;5023019;28;20056;-82
2022/09/17 00:52:43;;;;;;;22.40;11.13;;;486.60;2380.80;;;;;;5034646;28;20025;-82
2022/09/17 00:55:31;;;;;;;19.42;12.13;;;486.60;2380.80;;;;;;5035134;28;20034;-82
2022/09/17 00:58:00;;;;;;;19.30;11.25;;;486.50;2380.80;;;;;;5035611;28;20025;-82
2022/09/17 01:00:27;;;;;;;27.33;13.73;;;486.60;2380.80;;;;;;5034506;28;20021;-82
2022/09/17 01:02:54;;;;;;;21.90;12.45;;;486.50;2380.80;;;;;;5034451;28;20109;-81
2022/09/17 01:05:55;;;;;;;21.65;12.90;;;486.60;2380.80;;;;;;5057018;28;20005;-80
2022/09/17 01:08:32;;;;;;;16.90;11.45;;;486.70;2380.80;;;;;;5058701;28;20057;-80
2022/09/17 01:10:58;;;;;;;19.27;11.88;;;486.60;2380.80;;;;;;5035931;28;20034;-82
2022/09/17 01:13:35;;;;;;;22.10;11.82;;;486.50;2380.80;;;;;;5034328;28;20022;-82
2022/09/17 01:16:33;;;;;;;24.50;14.13;;;486.70;2380.80;;;;;;5033267;28;20033;-81
2022/09/17 01:19:21;;;;;;;22.13;13.15;;;486.50;2380.80;;;;;;5048155;28;20032;-82
2022/09/17 01:22:01;;;;;;;21.05;12.27;;;486.50;2380.80;;;;;;5031449;28;20029;-81
2022/09/17 01:24:52;;;;;;;19.08;10.50;;;461.70;2380.80;;;;;;5032758;28;20036;-82
2022/09/17 01:27:38;;;;;;;17.13;12.48;;;486.50;2380.80;;;;;;5032707;28;20033;-81
2022/09/17 01:30:53;;;;;;;21.58;12.80;;;486.50;2380.80;;;;;;5032533;28;20022;-82
2022/09/17 01:33:48;;;;;;;19.88;12.15;;;461.70;2380.80;;;;;;5032715;28;20032;-82
2022/09/17 01:36:21;;;;;;;19.80;11.35;;;461.50;2380.80;;;;;;5018187;28;20046;-82
2022/09/17 01:38:55;;;;;;;17.88;9.30;;;461.70;2380.80;;;;;;5027480;28;20486;-82
2022/09/17 01:41:35;;;;;;;18.67;9.73;;;461.70;2380.80;;;;;;5032114;28;20029;-81
2022/09/17 01:44:09;;;;;;;12.93;8.27;;;486.40;2380.80;;;;;;5030520;28;20491;-82
2022/09/17 01:47:02;;;;;;;15.93;8.00;;;461.70;2380.80;;;;;;5032309;28;20057;-81
2022/09/17 01:49:28;;;;;;;;;;;486.40;2380.80;;;;;;5032801;28;20033;-82
2022/09/17 01:51:55;;;;;;;14.35;8.57;;;486.40;2380.80;;;;;;5032452;28;19909;-82
2022/09/17 01:54:34;;;;;;;15.75;8.73;;;486.40;2380.80;;;;;;5032309;28;20034;-82
2022/09/17 01:57:07;;;;;;;12.82;7.82;;;486.50;2380.80;;;;;;5033012;28;20029;-81
2022/09/17 01:59:41;;;;;;;14.80;8.02;;;486.40;2380.80;;;;;;5032400;28;20065;-82
2022/09/17 02:02:31;;;;;;;16.15;7.88;;;486.40;2380.80;;;;;;5033845;28;20029;-82
2022/09/17 02:05:07;;;;;;;14.88;7.72;;;486.40;2380.80;;;;;;5032085;28;20025;-81
2022/09/17 02:07:44;;;;;;;11.88;7.20;;;486.40;2380.80;;;;;;5032183;28;20032;-81
2022/09/17 02:10:15;;;;;;;15.18;7.68;;;461.50;2380.80;;;;;;5032093;28;20467;-82
2022/09/17 02:13:00;;;;;;;18.60;7.75;;;486.40;2380.80;;;;;;5032389;28;20026;-81
2022/09/17 02:15:32;;;;;;;22.42;7.85;;;486.40;2380.80;;;;;;5033505;28;20084;-82
2022/09/17 02:18:10;;;;;;;17.52;7.07;;;461.70;2380.80;;;;;;5031148;28;20048;-82
2022/09/17 02:20:44;;;;;;;11.05;6.88;;;486.40;2380.80;;;;;;5065334;28;20041;-80
2022/09/17 02:23:27;;;;;;;12.32;7.50;;;486.40;2380.80;;;;;;5030795;28;20045;-82
2022/09/17 02:26:02;;;;;;;16.15;7.38;;;461.50;2380.80;;;;;;5032402;28;20529;-83
2022/09/17 02:28:40;;;;;;;17.00;8.32;;;461.60;2380.80;;;;;;5031832;28;20092;-82
2022/09/17 02:31:06;;;;;;;16.30;8.65;;;461.60;2380.80;;;;;;5032523;28;20024;-82
2022/09/17 02:33:34;;;;;;;11.18;7.18;;;461.70;2380.80;;;;;;5032144;28;20025;-82
2022/09/17 02:36:01;;;;;;;15.13;7.15;;;461.60;2380.80;;;;;;5032011;28;20076;-82
2022/09/17 02:38:29;;;;;;;14.75;7.10;;;461.50;2380.80;;;;;;5031751;28;20029;-82
2022/09/17 02:41:24;;;;;;;13.00;6.57;;;461.60;2380.80;;;;;;5031898;28;20398;-82
2022/09/17 02:44:11;;;;;;;10.18;5.97;;;461.40;2380.80;;;;;;5053720;28;20466;-81
2022/09/17 02:47:16;;;;;;;13.70;7.00;;;461.50;2380.80;;;;;;5031823;28;20080;-81
2022/09/17 02:49:57;;;;;;;11.45;5.40;;;461.50;2380.80;;;;;;5031128;28;20478;-83
2022/09/17 02:52:26;;;;;;;18.15;5.85;;;461.60;2380.80;;;;;;5031919;28;20422;-82
2022/09/17 02:55:06;;;;;;;14.52;6.07;;;461.70;2380.80;;;;;;5031925;28;20037;-82
2022/09/17 02:57:55;;;;;;;13.50;6.20;;;461.60;2380.80;;;;;;5032113;28;20383;-81
2022/09/17 03:00:22;;;;;;;12.50;5.95;;;461.50;2380.80;;;;;;5028980;28;20398;-81
2022/09/17 03:03:07;;;;;;;12.55;6.72;;;486.80;2380.80;;;;;;5030190;28;20040;-82
2022/09/17 03:05:36;;;;;;;15.30;6.95;;;461.60;2380.80;;;;;;5030788;28;20026;-81
2022/09/17 03:08:02;;;;;;;13.13;6.72;;;461.50;2380.80;;;;;;5029610;28;20018;-83
2022/09/17 03:10:32;;;;;;;13.55;6.45;;;461.60;2380.80;;;;;;5030519;28;20039;-81
2022/09/17 03:12:58;;;;;;;11.38;6.00;;;461.50;2380.80;;;;;;5034500;28;20030;-82
2022/09/17 03:15:24;;;;;;;13.50;5.65;;;461.60;2380.80;;;;;;5032526;28;20045;-81
2022/09/17 03:17:50;;;;;;;14.00;5.85;;;461.70;2380.80;;;;;;5034181;28;20030;-82
2022/09/17 03:20:16;;;;;;;9.52;6.70;;;461.70;2380.80;;;;;;5035237;28;20422;-81
2022/09/17 03:22:42;;;;;;;14.88;6.22;;;486.40;2380.80;;;;;;5034106;28;20026;-82
2022/09/17 03:25:08;;;;;;;10.98;5.88;;;461.60;2380.80;;;;;;5035104;28;20034;-82
2022/09/17 03:27:34;;;;;;;11.20;5.50;;;486.40;2380.80;;;;;;5034758;28;20117;-81
2022/09/17 03:30:00;;;;;;;14.77;6.35;;;486.40;2380.80;;;;;;5034995;28;20064;-82
2022/09/17 03:32:26;;;;;;;14.23;5.70;;;486.40;2380.80;;;;;;5034742;28;20025;-81
2022/09/17 03:34:53;;;;;;;12.63;6.40;;;486.50;2380.80;;;;;;5034633;28;20040;-82
2022/09/17 03:37:19;;;;;;;9.90;5.53;;;486.50;2380.80;;;;;;5068389;28;20025;-82
2022/09/17 03:39:45;;;;;;;8.68;5.22;;;486.50;2380.80;;;;;;5034740;28;20026;-82
2022/09/17 03:42:11;;;;;;;11.02;5.50;;;487.00;2380.80;;;;;;5034017;28;20049;-82
2022/09/17 03:44:36;;;;;;;16.23;5.97;;;486.60;2380.80;;;;;;5034778;28;20485;-82
2022/09/17 03:47:03;;;;;;;10.48;6.65;;;486.70;2380.80;;;;;;5034944;28;20025;-83
2022/09/17 03:49:28;;;;;;;14.07;5.80;;;486.60;2380.80;;;;;;5034581;28;20079;-84
2022/09/17 03:51:54;;;;;;;10.73;6.18;;;486.50;2380.80;;;;;;5034849;28;20029;-82
2022/09/17 03:54:20;;;;;;;12.48;5.95;;;486.60;2380.80;;;;;;5034813;28;20044;-84
2022/09/17 03:56:46;;;;;;;15.02;6.13;;;486.60;2380.80;;;;;;5034680;28;20454;-83
2022/09/17 03:59:12;;;;;;;14.07;7.00;;;486.60;2380.80;;;;;;5037960;28;20025;-82
2022/09/17 04:01:38;;;;;;;11.93;6.05;;;486.60;2380.80;;;;;;5034186;28;20021;-82
2022/09/17 04:04:04;;;;;;;14.90;6.18;;;486.50;2380.80;;;;;;5032824;28;20116;-82
2022/09/17 04:06:30;;;;;;;14.55;5.80;;;461.70;2380.80;;;;;;5033361;28;20052;-82
2022/09/17 04:08:55;;;;;;;16.58;6.82;;;486.40;2380.80;;;;;;5033800;28;20100;-82
2022/09/17 04:11:22;;;;;;;12.50;5.45;;;486.40;2380.80;;;;;;5034086;28;20028;-82
2022/09/17 04:13:48;;;;;;;17.48;7.15;;;486.40;2380.80;;;;;;5033533;28;20083;-82
2022/09/17 04:16:14;;;;;;;12.02;5.90;;;486.50;2380.80;;;;;;5031926;28;20486;-82
2022/09/17 04:18:39;;;;;;;12.70;5.88;;;486.50;2380.80;;;;;;5014297;28;20041;-82
2022/09/17 04:21:05;;;;;;;9.95;5.43;;;486.60;2380.80;;;;;;5013347;28;20352;-82
2022/09/17 04:23:31;;;;;;;18.58;5.88;;;461.70;2380.80;;;;;;5012107;28;20030;-82
2022/09/17 04:25:57;;;;;;;10.77;5.82;;;486.60;2380.80;;;;;;5013048;28;20045;-82
2022/09/17 04:28:23;;;;;;;13.98;4.63;;;486.50;2380.80;;;;;;5012886;28;20034;-82
2022/09/17 04:30:49;;;;;;;14.43;5.80;;;486.50;2380.80;;;;;;5013672;28;20025;-82
2022/09/17 04:33:15;;;;;;;16.42;6.93;;;486.50;2380.80;;;;;;5014086;28;20521;-82
2022/09/17 04:35:41;;;;;;;17.38;8.07;;;486.60;2380.80;;;;;;5047235;28;20415;-83
2022/09/17 04:38:08;;;;;;;15.45;6.38;;;486.60;2380.80;;;;;;5013526;28;20034;-83
2022/09/17 04:40:33;;;;;;;18.73;6.43;;;486.50;2380.80;;;;;;5013930;28;20044;-83
2022/09/17 04:43:01;;;;;;;9.68;6.25;;;486.50;2380.80;;;;;;5021139;28;20045;-83
2022/09/17 04:45:32;;;;;;;16.30;7.07;;;486.50;2380.80;;;;;;5030122;28;20116;-84
2022/09/17 04:47:57;;;;;;;12.50;5.18;;;486.60;2380.80;;;;;;5030425;28;20482;-83
2022/09/17 04:50:23;;;;;;;11.00;4.90;;;486.50;2380.80;;;;;;5030285;28;20034;-84
2022/09/17 04:52:49;;;;;;;9.20;3.65;;;486.50;2380.80;;;;;;5029849;28;20026;-83
2022/09/17 04:55:16;;;;;;;13.52;4.13;;;486.70;2380.80;;;;;;5030163;28;20091;-83
2022/09/17 04:57:49;;;;;;;6.38;3.35;;;486.70;2380.80;;;;;;5030102;28;20042;-83
2022/09/17 05:00:16;;;;;;;8.35;4.13;;;486.80;2380.80;;;;;;5030195;28;20018;-84
2022/09/17 05:02:47;;;;;;;13.57;4.25;;;486.80;2380.80;;;;;;5030169;28;20021;-83
2022/09/17 05:05:14;;;;;;;14.02;3.92;;;486.80;2380.80;;;;;;5029819;28;20467;-81
2022/09/17 05:07:40;;;;;;;8.38;4.22;;;486.90;2380.80;;;;;;5014676;28;20036;-83
2022/09/17 05:10:08;;;;;;;13.38;4.22;;;486.90;2380.80;;;;;;5029990;28;20026;-84
2022/09/17 05:12:33;;;;;;;8.45;6.05;;;487.00;2380.80;;;;;;5029660;28;20033;-83
2022/09/17 05:14:59;;;;;;;11.55;4.63;;;487.00;2380.80;;;;;;5014394;28;20129;-83
2022/09/17 05:17:25;;;;;;;9.38;4.68;;;487.00;2380.80;;;;;;5029789;28;20076;-83
2022/09/17 05:19:52;;;;;;;11.95;4.25;;;487.00;2380.80;;;;;;5014357;28;20054;-83
2022/09/17 05:22:18;;;;;;;11.65;4.30;;;487.00;2355.20;;;;;;5014232;28;20026;-81
2022/09/17 05:24:44;;;;;;;8.43;4.50;;;486.70;2380.80;;;;;;5045356;28;20116;-81
2022/09/17 05:27:10;;;;;;;9.90;4.40;;;487.00;2380.80;;;;;;5029185;28;20065;-81
2022/09/17 05:29:36;;;;;;;16.27;8.25;;;487.00;2380.80;;;;;;5028406;28;20041;-81
2022/09/17 05:32:03;;;;;;;13.50;7.47;;;487.00;2380.80;;;;;;5028836;28;20026;-81
2022/09/17 05:34:28;;;;;;;19.23;8.32;;;487.00;2380.80;;;;;;5029120;28;20538;-81
2022/09/17 05:36:54;;;;;;;20.40;7.82;;;487.00;2380.80;;;;;;5029607;28;20030;-81
2022/09/17 05:39:24;;;;;;;21.23;9.13;;;487.00;2380.80;;;;;;5029415;28;20460;-81
2022/09/17 05:41:53;;;;;;;18.63;8.38;;;487.00;2380.80;;;;;;5030290;28;20025;-80
2022/09/17 05:44:20;;;;;;;18.75;8.73;;;487.00;2380.80;;;;;;5032695;28;20033;-81
2022/09/17 05:46:46;;;;;;;16.02;8.50;;;487.00;2380.80;;;;;;5032369;28;20033;-81
2022/09/17 05:49:15;;;;;;;18.92;8.95;;;487.00;2380.80;;;;;;5032543;28;20032;-81
2022/09/17 05:51:41;;;;;;;24.50;9.32;;;487.00;2380.80;;;;;;5033092;28;20430;-82
2022/09/17 05:54:08;;;;;;;22.02;10.48;;;487.10;2380.80;;;;;;5032274;28;20041;-82
2022/09/17 05:56:33;;;;;;;19.95;9.88;;;487.10;2380.80;;;;;;5032506;28;20044;-82
2022/09/17 05:58:59;;;;;;;19.30;10.13;;;487.10;2380.80;;;;;;5032637;28;20037;-82
2022/09/17 06:01:25;;;;;;;14.15;8.30;;;487.20;2380.80;;;;;;5032205;28;20022;-82
2022/09/17 06:03:51;;;;;;;11.27;6.28;;;487.30;2380.80;;;;;;5032628;28;20136;-82
2022/09/17 06:06:17;;;;;;;10.07;5.95;;;487.30;2380.80;;;;;;5032490;28;20029;-82
2022/09/17 06:08:43;;;;;;;10.88;5.47;;;487.30;2380.80;;;;;;5032052;28;20037;-81
2022/09/17 06:11:09;;;;;;;10.27;5.03;;;487.30;2380.80;;;;;;5032374;28;20030;-82
2022/09/17 06:13:35;;;;;;;11.95;5.22;;;487.30;2380.80;;;;;;5032315;28;20028;-82
2022/09/17 06:16:01;;;;;;;11.60;5.57;;;512.00;2380.80;;;;;;5031977;28;20479;-81
2022/09/17 06:18:29;;;;;;;10.25;5.10;;;512.00;2380.80;;;;;;5032236;28;20025;-82
2022/09/17 06:21:00;;;;;;;9.48;4.90;;;512.10;2380.80;;;;;;5032276;28;20116;-82
2022/09/17 06:23:27;;;;;;;9.02;5.75;;;512.00;2329.60;;;;;;5032008;28;20053;-81
2022/09/17 06:25:55;;;;;;;9.48;4.78;;;512.00;2380.80;;;;;;5032131;28;20045;-81
2022/09/17 06:28:20;;;;;;;8.48;5.07;;;512.00;2380.80;;;;;;5032015;28;20026;-81
2022/09/17 06:30:47;;;;;;;7.97;5.80;;;512.10;2380.80;;;;;;5031819;28;20079;-82
2022/09/17 06:33:13;;;;;;;8.60;4.68;;;512.10;2380.80;;;;;;5032002;28;20034;-81
2022/09/17 06:35:39;;;;;;;11.82;4.78;;;512.10;2380.80;;;;;;5031709;28;20036;-81
2022/09/17 06:38:06;;;;;;;11.23;5.40;;;512.20;2380.80;;;;;;5031741;28;20029;-81
2022/09/17 06:40:32;;;;;;;14.13;6.85;;;512.20;2380.80;;;;;;5032004;28;20064;-81
2022/09/17 06:42:58;;;;;;;11.20;6.53;;;512.20;2380.80;;;;;;5031635;28;20049;-81
2022/09/17 06:45:25;;;;;;;11.30;5.03;;;512.90;2380.80;;;;;;5035326;28;20037;-81
2022/09/17 06:47:52;;;;;;;8.00;5.28;;;512.20;2380.80;;;;;;5037093;28;20057;-81
2022/09/17 06:50:18;;;;;;;9.85;5.20;;;512.20;2380.80;;;;;;5035588;28;20029;-82
2022/09/17 06:52:48;;;;;;;11.30;5.32;;;512.30;2380.80;;;;;;5035861;28;20467;-81
2022/09/17 06:55:14;;;;;;;10.30;5.50;;;512.30;2380.80;;;;;;5035536;28;20172;-82
2022/09/17 06:57:40;;;;;;;37.63;22.85;;;512.30;2380.80;;;;;;5035073;28;20025;-82
2022/09/17 07:00:07;;;;;;;29.80;17.75;;;512.20;2380.80;;;;;;5035654;28;20044;-82
2022/09/17 07:02:34;;;;;;;28.42;15.85;;;512.20;2380.80;;;;;;5035516;28;20386;-82
2022/09/17 07:05:00;;;;;;;23.45;14.75;;;512.30;2380.80;;;;;;5035143;28;20045;-81
2022/09/17 07:07:26;;;;;;;23.08;13.95;;;512.20;2380.80;;;;;;5035547;28;20021;-81
2022/09/17 07:09:54;;;;;;;26.52;12.80;;;512.20;2380.80;;;;;;5036572;28;20048;-81
2022/09/17 07:12:21;;;;;;;22.40;11.50;;;512.20;2380.80;;;;;;5034937;28;20116;-81
2022/09/17 07:14:46;;;;;;;19.30;10.57;;;512.30;2380.80;;;;;;5035245;28;20029;-81
2022/09/17 07:17:13;;;;;;;20.20;10.52;;;512.30;2380.80;;;;;;5035011;28;20036;-81
2022/09/17 07:19:39;;;;;;;17.27;9.90;;;512.40;2380.80;;;;;;5034894;28;20029;-82
2022/09/17 07:22:05;;;;;;;16.67;8.85;;;512.40;2380.80;;;;;;5033767;28;20449;-81
2022/09/17 07:24:31;;;;;;;18.65;10.07;;;512.30;2380.80;;;;;;5035183;28;20029;-81
2022/09/17 07:26:57;;;;;;;21.15;11.32;;;537.60;2099.20;;;;;;5034882;28;20076;-81
2022/09/17 07:29:25;;;;;;;18.13;12.50;;;512.50;2380.80;;;;;;5035126;28;20037;-82
2022/09/17 07:31:52;;;;;;;30.58;14.48;;;512.40;2380.80;;;;;;5034818;28;20037;-82
2022/09/17 07:34:19;;;;;;;19.92;13.90;;;512.40;2380.80;;;;;;5034856;28;20479;-82
2022/09/17 07:36:45;;;;;;;22.23;14.65;;;512.40;2380.80;;;;;;5034865;28;20055;-81
2022/09/17 07:39:12;;;;;;;25.08;14.32;;;512.40;2380.80;;;;;;5034716;28;20052;-82
2022/09/17 07:41:38;;;;;;;19.35;16.33;;;512.40;2380.80;;;;;;5035015;28;20032;-82
2022/09/17 07:44:08;;;;;;;19.17;12.55;;;512.40;2380.80;;;;;;5034242;28;20103;-81
2022/09/17 07:46:35;;;;;;;17.27;10.15;;;512.40;2380.80;;;;;;5034367;28;20033;-81
2022/09/17 07:49:01;;;;;;;16.85;10.20;;;512.40;2380.80;;;;;;5034837;28;20072;-82
2022/09/17 07:51:27;;;;;;;20.40;10.20;;;512.40;2380.80;;;;;;5034860;28;20360;-82
2022/09/17 07:53:58;;;;;;;18.95;10.82;;;512.30;2380.80;;;;;;5034253;28;20379;-82
2022/09/17 07:56:26;;;;;;;18.17;12.15;;;512.40;2380.80;;;;;;5033795;28;20029;-82
2022/09/17 07:58:52;;;;;;;17.60;11.10;;;512.30;2380.80;;;;;;5034641;28;20120;-82
2022/09/17 08:01:19;;;;;;;15.90;11.40;;;512.30;2380.80;;;;;;5034421;28;20025;-82
2022/09/17 08:03:53;;;;;;;17.33;14.07;;;512.20;2380.80;;;;;;5056528;28;20040;-82
2022/09/17 08:06:22;;;;;;;17.70;11.50;;;512.20;2380.80;;;;;;5059511;28;20017;-83
2022/09/17 08:08:49;;;;;;;11.90;8.88;;;512.00;2380.80;;;;;;5059338;28;20017;-82
2022/09/17 08:11:18;;;;;;;13.82;10.25;;;512.20;2380.80;;;;;;5050151;28;20052;-82
2022/09/17 08:13:50;;;;;;;18.75;10.50;;;512.20;2380.80;;;;;;5036856;28;20025;-83
2022/09/17 08:16:16;;;;;;;16.40;11.48;;;512.30;2380.80;;;;;;5036199;28;20045;-81
2022/09/17 08:18:43;;;;;;;25.58;18.98;;;512.30;2380.80;;;;;;5036050;28;20147;-82
2022/09/17 08:21:11;;;;;;;27.52;20.88;;;512.30;2380.80;;;;;;5017722;28;20025;-81
2022/09/17 08:23:39;;;;;;;25.08;16.45;;;512.20;2380.80;;;;;;5034331;28;20466;-82
2022/09/17 08:26:07;;;;;;;20.88;13.13;;;512.20;2380.80;;;;;;5034154;28;20044;-82
2022/09/17 08:28:34;;;;;;;13.60;10.68;;;512.10;2380.80;;;;;;5033873;28;20103;-81
2022/09/17 08:31:02;;;;;;;21.80;14.52;;;512.20;2380.80;;;;;;5035351;28;20026;-82
2022/09/17 08:33:32;;;;;;;19.73;15.23;;;512.20;2380.80;;;;;;5035282;28;20030;-82
2022/09/17 08:36:01;;;;;;;17.27;11.95;;;512.20;2380.80;;;;;;5033557;28;20034;-79
2022/09/17 08:38:33;;;;;;;19.23;12.18;;;512.20;2380.80;;;;;;5033073;28;20030;-81
2022/09/17 08:41:09;;;;;;;18.35;11.07;;;512.00;2380.80;;;;;;5033916;28;20025;-82
2022/09/17 08:43:44;;;;;;;19.30;12.68;;;512.10;2380.80;;;;;;5016978;28;20053;-82
2022/09/17 08:46:10;;;;;;;17.38;12.60;;;512.20;2380.80;;;;;;5017513;28;20029;-81
2022/09/17 08:48:44;;;;;;;17.65;11.23;;;512.00;2380.80;;;;;;5033705;28;20029;-82
2022/09/17 08:51:40;;;;;;;18.63;11.15;;;512.10;2380.80;;;;;;5033594;28;20030;-81
2022/09/17 08:54:16;;;;;;;13.57;7.93;;;512.00;2380.80;;;;;;5017226;28;20026;-81
2022/09/17 08:56:46;;;;;;;13.00;7.45;;;512.00;2380.80;;;;;;5016904;28;20026;-82
2022/09/17 08:59:26;;;;;;;10.48;6.38;;;512.00;2380.80;;;;;;5033450;28;20122;-81
2022/09/17 09:02:29;;;;;;;14.02;6.40;;;512.10;2380.80;;;;;;5033295;28;20033;-82
2022/09/17 09:05:12;;;;;;;12.27;7.85;;;512.00;2380.80;;;;;;5033157;28;20057;-82
2022/09/17 09:07:43;;;;;;;12.98;8.77;;;487.30;2380.80;;;;;;5033266;28;20057;-81
2022/09/17 09:10:24;;;;;;;12.90;9.50;;;487.30;2380.80;;;;;;5033191;28;20131;-82
2022/09/17 09:12:52;;;;;;;14.05;8.40;;;487.30;2380.80;;;;;;5033211;28;20030;-82
2022/09/17 09:15:22;;;;;;;12.90;7.45;;;487.30;2380.80;;;;;;5033243;28;20137;-81
2022/09/17 09:17:50;;;;;;;11.85;7.72;;;487.30;2380.80;;;;;;5032754;28;20021;-82
2022/09/17 09:20:23;;;;;;;9.35;6.07;;;487.30;2380.80;;;;;;5032954;28;20028;-81
2022/09/17 09:22:51;;;;;;;11.05;6.75;;;487.20;2380.80;;;;;;5033131;28;20112;-81
2022/09/17 09:25:26;;;;;;;11.13;6.30;;;487.10;2380.80;;;;;;5035794;28;20029;-81
2022/09/17 09:28:15;;;;;;;8.75;6.40;;;487.30;2380.80;;;;;;5035763;28;20029;-81
2022/09/17 09:30:57;;;;;;;8.10;5.30;;;487.30;2380.80;;;;;;5035395;28;20036;-81
2022/09/17 09:33:31;;;;;;;7.78;4.10;;;512.00;2380.80;;;;;;5050434;28;20040;-81
2022/09/17 09:35:57;;;;;;;11.90;4.75;;;512.00;2380.80;;;;;;5035783;28;20037;-81
2022/09/17 09:38:39;;;;;;;8.07;4.93;;;487.30;2380.80;;;;;;5053109;28;20063;-82
2022/09/17 09:41:26;;;;;;;9.60;6.10;;;512.00;2380.80;;;;;;5036168;28;20028;-81
2022/09/17 09:44:09;;;;;;;10.43;7.00;;;487.30;2380.80;;;;;;5036566;28;20048;-82
2022/09/17 09:46:44;;;;;;;10.50;7.75;;;487.30;2380.80;;;;;;5073452;28;20052;-81
2022/09/17 09:49:48;;;;;;;11.95;7.55;;;512.00;2380.80;;;;;;5054188;28;20048;-81
2022/09/17 09:52:20;;;;;;;12.75;8.88;;;512.00;2380.80;;;;;;5055847;28;20481;-81
2022/09/17 09:54:53;;;;;;;62.13;48.70;;;512.00;2380.80;;;;;;5073311;28;20469;-81
2022/09/17 09:57:44;;;;;;;37.70;31.25;;;487.30;2380.80;;;;;;5055776;28;20430;-81
2022/09/17 10:00:37;;;;;;;20.88;17.33;;;487.10;2380.80;;;;;;5055813;28;20032;-81
2022/09/17 10:03:12;;;;;;;18.33;15.63;;;487.00;2380.80;;;;;;5055424;28;20040;-81
2022/09/17 10:05:38;;;;;;;17.60;15.77;;;486.80;2380.80;;;;;;5055914;28;20033;-82
2022/09/17 10:08:11;;;;;;;15.40;10.50;;;486.80;2380.80;;;;;;5055687;28;20385;-84
2022/09/17 10:11:00;;;;;;;10.60;7.63;;;486.90;2380.80;;;;;;5055458;28;20031;-83
2022/09/17 10:13:28;;;;;;;11.65;6.65;;;487.00;2380.80;;;;;;5073618;28;20359;-81
2022/09/17 10:15:55;;;;;;;11.73;7.55;;;487.10;2380.80;;;;;;5055638;28;20033;-82
2022/09/17 10:18:23;;;;;;;8.73;4.93;;;487.20;2380.80;;;;;;5038169;28;20068;-82
2022/09/17 10:20:59;;;;;;;8.00;5.32;;;487.20;2380.80;;;;;;5038413;28;20036;-81
2022/09/17 10:23:32;;;;;;;8.43;5.68;;;487.30;2380.80;;;;;;5037820;28;20116;-81
2022/09/17 10:25:58;;;;;;;9.48;6.40;;;512.00;2380.80;;;;;;5039105;28;20029;-81
2022/09/17 10:28:33;;;;;;;11.13;5.63;;;512.10;2380.80;;;;;;5039716;28;20409;-81
2022/09/17 10:31:04;;;;;;;8.82;6.30;;;512.10;2380.80;;;;;;5055951;28;20025;-82
2022/09/17 10:33:33;;;;;;;13.13;10.48;;;487.30;2380.80;;;;;;5039533;28;20036;-80
2022/09/17 10:36:05;;;;;;;12.07;8.75;;;487.10;2380.80;;;;;;5039433;28;20033;-81
2022/09/17 10:38:41;;;;;;;10.55;8.63;;;486.80;2380.80;;;;;;5039019;28;20033;-83
2022/09/17 10:41:16;;;;;;;9.52;8.52;;;486.80;2380.80;;;;;;5039351;28;20029;-83
2022/09/17 10:43:42;;;;;;;8.80;6.57;;;486.60;2380.80;;;;;;5039043;28;20567;-83
2022/09/17 10:46:13;;;;;;;7.93;5.25;;;486.50;2380.80;;;;;;5038874;28;20037;-85
2022/09/17 10:48:45;;;;;;;6.72;4.50;;;461.70;2380.80;;;;;;5039423;28;20074;-85
2022/09/17 10:51:21;;;;;;;6.22;3.70;;;461.70;2380.80;;;;;;5039296;28;20027;-83
2022/09/17 10:54:18;;;;;;;6.47;3.90;;;461.50;2380.80;;;;;;5039263;28;20048;-83
2022/09/17 10:56:53;;;;;;;6.93;4.60;;;461.60;2380.80;;;;;;5039136;28;20037;-84
2022/09/17 10:59:31;;;;;;;4.68;3.63;;;461.40;2380.80;;;;;;5038777;28;20021;-84
2022/09/17 11:02:08;;;;;;;5.55;4.00;;;461.30;2380.80;;;;;;5055602;28;20029;-83
2022/09/17 11:04:54;;;;;;;6.03;3.50;;;461.40;2380.80;;;;;;5056719;28;20033;-82
2022/09/17 11:07:49;;;;;;;5.10;3.67;;;461.40;2380.80;;;;;;5038714;28;20386;-83
2022/09/17 11:10:24;;;;;;;4.95;4.00;;;461.70;2380.80;;;;;;5020114;28;20029;-83
2022/09/17 11:13:19;;;;;;;6.97;4.38;;;487.20;2380.80;;;;;;5055206;28;20098;-85
2022/09/17 11:16:01;;;;;;;11.10;8.25;;;487.10;2380.80;;;;;;5071972;28;20029;-84
2022/09/17 11:18:34;;;;;;;10.50;7.53;;;512.30;2380.80;;;;;;5055676;28;20072;-81
2022/09/17 11:21:38;;;;;;;9.43;5.53;;;512.20;2380.80;;;;;;5055129;28;20265;-84
2022/09/17 11:24:07;;;;;;;7.47;5.65;;;;;;;;;;5038092;28;20037;-84
2022/09/17 11:26:44;;;;;;;8.35;6.53;;;;;;;;;;5054828;28;20021;-84
2022/09/17 11:29:10;;;;;;;10.45;8.55;;;;;;;;;;5055021;28;20070;-82
2022/09/17 11:32:00;;;;;;;10.77;9.35;;;;;;;;;;5053822;28;20341;-82
2022/09/17 11:34:26;;;;;;;12.20;8.68;;;;;;;;;;5054809;28;20029;-81
2022/09/17 11:37:02;;;;;;;13.02;7.80;;;;;;;;;;5054548;28;20079;-83
2022/09/17 11:39:28;;;;;;;8.55;7.65;;;;;;;;;;5055144;28;20463;-82
2022/09/17 11:41:55;;;;;;;9.98;8.02;;;;;;;;;;5054458;28;20044;-82
2022/09/17 11:44:28;;;;;;;10.70;7.72;;;;;;;;;;5054906;28;20033;-83
2022/09/17 11:46:57;;;;;;;12.90;9.27;;;;;;;;;;5054854;28;20025;-83
2022/09/17 11:49:23;;;;;;;9.90;8.82;;;;;;;;;;5054311;28;20079;-82
2022/09/17 11:51:52;;;;;;;10.00;8.48;;;;;;;;;;5054835;28;20021;-83
2022/09/17 11:54:30;;;;;;;11.73;9.50;;;;;;;;;;5054526;28;20074;-83
2022/09/17 11:57:16;;;;;;;11.10;9.95;;;;;;;;;;5054695;28;20382;-83
2022/09/17 11:59:46;;;;;;;9.38;8.38;;;;;;;;;;5038030;28;20025;-83
2022/09/17 12:02:19;;;;;;;11.02;9.13;;;;;;;;;;5054328;28;20059;-82
2022/09/17 12:04:46;;;;;;;10.95;8.88;;;;;;;;;;5054494;28;20053;-82
2022/09/17 12:07:19;;;;;;;9.30;8.50;;;;;;;;;;5054627;28;20612;-82
2022/09/17 12:09:46;;;;;;;9.35;8.45;;;;;;;;;;5053862;28;20021;-82
2022/09/17 12:12:16;;;;;;;10.90;9.77;;;;;;;;;;5054271;28;20104;-82
2022/09/17 12:14:57;;;;;;;12.52;9.80;;;;;;;;;;5054329;28;20029;-82
2022/09/17 12:17:25;;;;;;;11.30;10.20;;;;;;;;;;5053978;28;20470;-83
2022/09/17 12:19:59;;;;;;;10.90;9.80;;;;;;;;;;5037597;28;20076;-83
2022/09/17 12:22:27;;;;;;;11.48;10.27;;;;;;;;;;5053772;28;20020;-83
2022/09/17 12:24:53;;;;;;;10.50;9.40;;;;;;;;;;5037415;28;20423;-83
2022/09/17 12:27:36;;;;;;;12.27;9.10;;;;;;;;;;5053939;28;20023;-84
2022/09/17 12:30:17;;;;;;;12.20;9.63;;;;;;;;;;5053848;28;20474;-82
2022/09/17 12:33:02;;;;;;;11.52;9.18;;;;;;;;;;5054104;28;20025;-83
2022/09/17 12:35:46;;;;;;;11.40;10.23;;;;;;;;;;5054086;28;20037;-84
2022/09/17 12:38:25;;;;;;;13.77;12.23;;;;;;;;;;5037002;28;20029;-84
2022/09/17 12:40:51;;;;;;;14.68;13.07;;;;;;;;;;5037055;28;20430;-83
2022/09/17 12:43:27;;;;;;;14.30;12.80;;;;;;;;;;5036468;28;20124;-83